Accueil
METAR-TAF:

METAR-TAF

Aéroports :

Dübendorf, Suisse

latitude: 47-23-55N, longitude: 8-38-53E, altitude: 448 m

Observation

Le bulletin a été fait il y a 50 minutes, à 09:50 UTC
Vent 10 kt de est, variant entre est/nord-est et est/sud-est
Température -2°C
Humidité 74%
Pression 1011 hPa
Visibilité: 5000 m
Ciel couvert à une hauteur de 1700 ft
neige faible

METAR: LSMD 220950Z 09010KT 060V120 5000 -SN OVC017 M02/M06 Q1011 RMK WHT

Heure: 11:40 (10:40 UTC)


TAF: absent

Observations et prévisions météorologiques de plus de 4000 aéroports (messages METAR et TAF).

Les stations disponibles sont représentées par des disques jaunes et rouges sur la carte.

Passer la souris dessus pour voir le nom de la station.

Cliquer dessus pour voir les observations et prévisions météorologiques.

Pour changer de carte: cliquez sur les boutons verts avec une croix noire pour zoomer, sur le bouton vert avec un tiret pour effectuer un zoom arrière, ou sur les flèches vertes pour les cartes adjacentes.


METAR-TAF: